Time;durP1;ratioP1;P1;durP2;ratioP2;P2;SDS_P1;SDS_P2;PMS_P1;PMS_P2;Temp;Humidity;BMP_temperature;BMP_pressure;BME280_temperature;BME280_humidity;BME280_pressure;Samples;Min_cycle;Max_cycle;Signal;HPM_P1;HPM_P2
2022/01/16 00:04:06;;;;;;;352.90;56.78;;;1.20;99.90;;;;;;5093666;28;20123;-71
2022/01/16 00:06:33;;;;;;;360.65;58.97;;;1.20;99.90;;;;;;5083347;28;20146;-70
2022/01/16 00:08:58;;;;;;;391.77;56.08;;;1.20;99.90;;;;;;5085240;28;20104;-69
2022/01/16 00:11:24;;;;;;;433.42;62.78;;;1.20;99.90;;;;;;5082692;28;20479;-70
2022/01/16 00:13:51;;;;;;;448.63;64.07;;;1.20;99.90;;;;;;5083873;28;20047;-70
2022/01/16 00:16:17;;;;;;;453.02;63.90;;;1.20;99.90;;;;;;5082032;28;20051;-73
2022/01/16 00:18:49;;;;;;;445.55;59.13;;;1.20;99.90;;;;;;5093245;28;20055;-73
2022/01/16 00:21:27;;;;;;;448.73;60.08;;;1.20;99.90;;;;;;5086629;28;20126;-74
2022/01/16 00:23:53;;;;;;;446.48;62.83;;;1.30;99.90;;;;;;5083510;28;20213;-71
2022/01/16 00:26:20;;;;;;;446.90;64.32;;;1.30;99.90;;;;;;5087230;28;20479;-71
2022/01/16 00:28:47;;;;;;;418.80;66.25;;;1.30;99.90;;;;;;5091820;28;20434;-71
2022/01/16 00:31:13;;;;;;;442.48;66.47;;;1.40;99.90;;;;;;5091172;28;20383;-71
2022/01/16 00:33:42;;;;;;;447.35;70.38;;;1.30;99.90;;;;;;5090786;28;20082;-72
2022/01/16 00:36:11;;;;;;;431.52;69.18;;;1.40;99.90;;;;;;5101635;27;20050;-72
2022/01/16 00:38:40;;;;;;;476.27;72.70;;;1.40;99.90;;;;;;5091528;28;20039;-72
2022/01/16 00:41:05;;;;;;;444.63;65.18;;;1.40;99.90;;;;;;5090930;28;20502;-73
2022/01/16 00:43:31;;;;;;;461.73;67.82;;;1.40;99.90;;;;;;5100149;28;20126;-72
2022/01/16 00:45:56;;;;;;;454.67;68.43;;;1.50;99.90;;;;;;5094210;28;20040;-72
2022/01/16 00:48:22;;;;;;;414.45;61.33;;;1.40;99.90;;;;;;5095521;28;20140;-73
2022/01/16 00:50:48;;;;;;;458.80;68.75;;;1.50;99.90;;;;;;5081725;28;20036;-73
2022/01/16 00:53:13;;;;;;;451.30;65.60;;;1.50;99.90;;;;;;5087965;28;20039;-73
2022/01/16 00:55:40;;;;;;;501.65;74.53;;;1.60;99.90;;;;;;5095645;28;20044;-72
2022/01/16 00:58:06;;;;;;;491.30;75.18;;;1.60;99.90;;;;;;5092687;28;20038;-73
2022/01/16 01:00:33;;;;;;;524.05;84.90;;;1.60;99.90;;;;;;5100124;28;20474;-68
2022/01/16 01:03:02;;;;;;;506.35;91.72;;;1.60;99.90;;;;;;5084722;28;20046;-71
2022/01/16 01:05:28;;;;;;;511.05;83.03;;;1.50;99.90;;;;;;5091897;28;20386;-71
2022/01/16 01:07:55;;;;;;;524.38;82.55;;;1.60;99.90;;;;;;5088943;28;20058;-72
2022/01/16 01:10:27;;;;;;;499.08;84.20;;;1.50;99.90;;;;;;5098350;28;20151;-71
2022/01/16 01:12:55;;;;;;;563.33;94.90;;;1.60;99.90;;;;;;5094094;28;20046;-72
2022/01/16 01:15:29;;;;;;;495.30;79.95;;;1.60;99.90;;;;;;5094187;28;20048;-73
2022/01/16 01:17:55;;;;;;;521.63;87.57;;;1.50;99.90;;;;;;5091746;28;20040;-71
2022/01/16 01:20:22;;;;;;;501.73;84.03;;;1.60;99.90;;;;;;5086686;28;20115;-70
2022/01/16 01:22:50;;;;;;;506.13;84.15;;;1.60;99.90;;;;;;5093116;28;20047;-69
2022/01/16 01:25:16;;;;;;;556.97;87.72;;;1.60;99.90;;;;;;5088144;28;20282;-70
2022/01/16 01:27:44;;;;;;;571.17;86.65;;;1.60;99.90;;;;;;5088326;28;20115;-70
2022/01/16 01:30:12;;;;;;;456.65;74.78;;;1.60;99.90;;;;;;5091387;28;20043;-73
2022/01/16 01:32:39;;;;;;;501.17;76.13;;;1.60;99.90;;;;;;5086591;28;20044;-72
2022/01/16 01:35:09;;;;;;;497.15;73.03;;;1.60;99.90;;;;;;5081321;28;20375;-69
2022/01/16 01:37:35;;;;;;;558.88;80.20;;;1.60;99.90;;;;;;5105660;27;20060;-71
2022/01/16 01:40:04;;;;;;;584.50;85.60;;;1.60;99.90;;;;;;5091900;28;20071;-69
2022/01/16 01:42:33;;;;;;;543.72;73.32;;;1.70;99.90;;;;;;5096722;28;20401;-70
2022/01/16 01:53:14;;;;;;;528.40;67.22;;;1.60;99.90;;;;;;5094840;28;20043;-73
2022/01/16 01:55:44;;;;;;;531.00;73.45;;;1.70;99.90;;;;;;5085686;28;20074;-72
2022/01/16 01:58:11;;;;;;;580.13;73.10;;;1.70;99.90;;;;;;5087927;28;20040;-73
2022/01/16 02:00:42;;;;;;;515.75;68.20;;;1.70;99.90;;;;;;5087866;28;20032;-73
2022/01/16 02:03:16;;;;;;;525.67;65.85;;;1.80;99.90;;;;;;5096992;28;20055;-72
2022/01/16 02:05:43;;;;;;;578.55;69.85;;;1.80;99.90;;;;;;5104124;28;20111;-72
2022/01/16 02:08:09;;;;;;;560.60;70.30;;;1.70;99.90;;;;;;5078014;28;20088;-71
2022/01/16 02:10:39;;;;;;;596.25;69.35;;;1.70;99.90;;;;;;5083214;28;20112;-72
2022/01/16 02:13:07;;;;;;;609.63;71.35;;;1.80;99.90;;;;;;5094782;28;20498;-72
2022/01/16 02:27:58;;;;;;;568.97;68.47;;;1.80;99.90;;;;;;5086935;28;20044;-73
2022/01/16 02:30:39;;;;;;;607.38;68.85;;;1.90;99.90;;;;;;5099160;28;20051;-72
2022/01/16 02:32:45;;;;;;;626.75;70.78;;;2.00;99.90;;;;;;5084558;28;20044;-71
2022/01/16 02:35:11;;;;;;;601.78;67.43;;;2.00;99.90;;;;;;5086085;28;20050;-71
2022/01/16 02:37:37;;;;;;;547.47;64.53;;;2.00;99.90;;;;;;5087342;28;20040;-71
2022/01/16 02:40:11;;;;;;;516.30;62.80;;;2.00;99.90;;;;;;5086564;28;20059;-72
2022/01/16 02:42:41;;;;;;;518.72;60.10;;;2.00;99.90;;;;;;5087664;28;20494;-72
2022/01/16 02:45:15;;;;;;;440.10;56.53;;;2.00;99.90;;;;;;5081090;28;20122;-73
2022/01/16 02:47:41;;;;;;;475.67;59.58;;;2.00;99.90;;;;;;5084170;28;20051;-73
2022/01/16 02:50:06;;;;;;;475.65;59.53;;;2.00;99.90;;;;;;5087650;28;20032;-72
2022/01/16 02:52:32;;;;;;;564.30;67.90;;;2.00;99.90;;;;;;5081298;28;20044;-72
2022/01/16 02:55:00;;;;;;;463.17;59.92;;;2.00;99.90;;;;;;5083787;28;20036;-73
2022/01/16 02:57:25;;;;;;;550.38;62.83;;;2.10;99.90;;;;;;5103352;28;20051;-73
2022/01/16 02:59:55;;;;;;;516.13;65.22;;;2.00;99.90;;;;;;5105078;27;20032;-72
2022/01/16 03:02:22;;;;;;;522.38;65.97;;;2.00;99.90;;;;;;5088265;28;20043;-72
2022/01/16 03:04:48;;;;;;;469.98;60.22;;;2.00;99.90;;;;;;5091118;28;20127;-71
2022/01/16 03:07:15;;;;;;;512.53;65.60;;;2.00;99.90;;;;;;5081528;28;20119;-73
2022/01/16 03:12:26;;;;;;;517.58;67.32;;;2.00;99.90;;;;;;5090422;28;20169;-72
2022/01/16 03:14:52;;;;;;;556.72;69.25;;;2.10;99.90;;;;;;5086490;28;20040;-71
2022/01/16 03:17:51;;;;;;;537.30;69.05;;;2.10;99.90;;;;;;5091968;28;20676;-72
2022/01/16 03:23:01;;;;;;;513.40;64.38;;;2.10;99.90;;;;;;5086182;28;20132;-71
2022/01/16 03:25:26;;;;;;;485.27;61.40;;;2.20;99.90;;;;;;5093115;28;20461;-72
2022/01/16 03:27:52;;;;;;;492.02;64.82;;;2.20;99.90;;;;;;5088554;28;20041;-72
2022/01/16 03:30:17;;;;;;;506.50;65.15;;;2.20;99.90;;;;;;5085614;28;20404;-70
2022/01/16 03:32:44;;;;;;;561.33;72.88;;;2.20;99.90;;;;;;5087205;28;20502;-71
2022/01/16 03:35:10;;;;;;;523.78;64.25;;;2.20;99.90;;;;;;5083934;28;20056;-72
2022/01/16 03:37:35;;;;;;;497.33;65.18;;;2.20;99.90;;;;;;5089597;28;20059;-72
2022/01/16 03:40:04;;;;;;;416.02;57.03;;;2.30;99.90;;;;;;5085521;28;20061;-71
2022/01/16 03:42:32;;;;;;;471.13;65.32;;;2.30;99.90;;;;;;5085235;28;20441;-71
2022/01/16 03:44:58;;;;;;;485.73;69.38;;;2.20;99.90;;;;;;5084431;28;20046;-72
2022/01/16 03:47:23;;;;;;;481.05;64.95;;;2.30;99.90;;;;;;5089149;28;20040;-70
2022/01/16 03:49:49;;;;;;;516.33;71.28;;;2.40;99.90;;;;;;5086037;28;20430;-72
2022/01/16 03:52:14;;;;;;;476.08;66.85;;;2.40;99.90;;;;;;5095554;28;20398;-72
2022/01/16 03:54:40;;;;;;;508.45;70.10;;;2.40;99.90;;;;;;5098454;28;20047;-72
2022/01/16 03:57:06;;;;;;;524.08;70.88;;;2.40;99.90;;;;;;5087397;28;20042;-72
2022/01/16 03:59:31;;;;;;;534.78;70.05;;;2.40;99.90;;;;;;5089667;28;20036;-71
2022/01/16 04:01:57;;;;;;;484.65;65.95;;;2.40;99.90;;;;;;5097578;28;20219;-71
2022/01/16 04:04:22;;;;;;;499.10;69.80;;;2.50;99.90;;;;;;5094648;28;20043;-70
2022/01/16 04:06:48;;;;;;;484.13;65.38;;;2.50;99.90;;;;;;5097720;28;20036;-71
2022/01/16 04:09:13;;;;;;;477.10;66.60;;;2.50;99.90;;;;;;5089903;28;20451;-72
2022/01/16 04:11:45;;;;;;;468.40;66.35;;;2.50;99.90;;;;;;5103093;28;20036;-73
2022/01/16 04:14:16;;;;;;;460.10;68.15;;;2.50;99.90;;;;;;5090579;28;20101;-72
2022/01/16 04:16:42;;;;;;;485.50;70.18;;;2.60;99.90;;;;;;5090326;28;20047;-70
2022/01/16 04:19:08;;;;;;;466.30;66.10;;;2.60;99.90;;;;;;5084862;28;20043;-72
2022/01/16 04:21:33;;;;;;;496.40;72.45;;;2.60;99.90;;;;;;5095241;28;20060;-73
2022/01/16 04:23:59;;;;;;;448.98;64.65;;;2.60;99.90;;;;;;5079624;28;20040;-71
2022/01/16 04:26:26;;;;;;;459.17;65.80;;;2.60;99.90;;;;;;5104851;27;20027;-71
2022/01/16 04:28:52;;;;;;;472.15;65.70;;;2.60;99.90;;;;;;5089022;28;20426;-73
2022/01/16 04:31:18;;;;;;;473.70;65.43;;;2.60;99.90;;;;;;5084235;28;20041;-72
2022/01/16 04:33:44;;;;;;;438.45;64.40;;;2.60;99.90;;;;;;5097678;28;20040;-72
2022/01/16 04:36:10;;;;;;;442.45;62.67;;;2.60;99.90;;;;;;5090087;28;20482;-71
2022/01/16 04:38:38;;;;;;;460.23;70.72;;;2.70;99.90;;;;;;5090090;28;20043;-71
2022/01/16 04:43:50;;;;;;;443.58;66.18;;;2.80;99.90;;;;;;5090009;28;20043;-72
2022/01/16 04:46:17;;;;;;;461.60;67.13;;;2.80;99.90;;;;;;5092179;28;20054;-72
2022/01/16 04:48:43;;;;;;;430.52;64.40;;;2.80;99.90;;;;;;5087887;28;20110;-71
2022/01/16 04:51:09;;;;;;;436.80;66.55;;;2.80;99.90;;;;;;5090620;28;20123;-71
2022/01/16 04:53:35;;;;;;;456.17;69.03;;;2.70;99.90;;;;;;5090364;28;20039;-71
2022/01/16 04:56:00;;;;;;;430.83;62.30;;;2.80;99.90;;;;;;5089940;28;20044;-71
2022/01/16 04:58:26;;;;;;;432.02;65.57;;;2.70;99.90;;;;;;5101722;28;20044;-69
2022/01/16 05:00:52;;;;;;;425.88;63.30;;;2.80;99.90;;;;;;5090354;28;20635;-71
2022/01/16 05:03:18;;;;;;;427.35;64.35;;;2.80;99.90;;;;;;5096653;28;20571;-71
2022/01/16 05:05:43;;;;;;;461.90;65.95;;;2.90;99.90;;;;;;5096869;28;20127;-72
2022/01/16 05:08:09;;;;;;;417.88;61.75;;;2.80;99.90;;;;;;5099549;28;20035;-70
2022/01/16 05:10:34;;;;;;;438.33;62.70;;;2.90;99.90;;;;;;5088416;28;20135;-73
2022/01/16 05:13:26;;;;;;;412.85;63.60;;;2.90;99.90;;;;;;5091794;28;20472;-72
2022/01/16 05:18:29;;;;;;;432.80;61.92;;;2.90;99.90;;;;;;5085864;28;20064;-72
2022/01/16 05:20:55;;;;;;;410.80;62.20;;;2.90;99.90;;;;;;5095635;28;20032;-71
2022/01/16 05:23:20;;;;;;;409.83;58.72;;;2.90;99.90;;;;;;5092585;28;20068;-72
2022/01/16 05:25:46;;;;;;;441.20;62.30;;;3.00;99.90;;;;;;5087246;28;20450;-73
2022/01/16 05:28:11;;;;;;;436.45;65.53;;;3.00;99.90;;;;;;5095367;28;20048;-72
2022/01/16 05:30:37;;;;;;;418.15;58.38;;;2.90;99.90;;;;;;5088559;28;20401;-71
2022/01/16 05:33:02;;;;;;;436.52;62.80;;;2.90;99.90;;;;;;5096712;28;20442;-72
2022/01/16 05:35:28;;;;;;;432.90;64.45;;;3.00;99.90;;;;;;5092502;28;20109;-73
2022/01/16 05:37:54;;;;;;;430.95;62.83;;;2.90;99.90;;;;;;5099186;28;20036;-72
2022/01/16 05:40:19;;;;;;;432.45;64.07;;;3.00;99.90;;;;;;5096949;28;20132;-71
2022/01/16 05:42:45;;;;;;;430.30;61.65;;;2.90;99.90;;;;;;5100168;28;20043;-71
2022/01/16 05:45:10;;;;;;;437.85;62.55;;;3.00;99.90;;;;;;5086128;28;20039;-72
2022/01/16 05:47:36;;;;;;;419.20;60.30;;;2.90;99.90;;;;;;5088315;28;20051;-72
2022/01/16 05:50:01;;;;;;;433.88;62.42;;;2.90;99.90;;;;;;5089030;28;20394;-73
2022/01/16 05:52:27;;;;;;;450.58;68.05;;;3.00;99.90;;;;;;5087948;28;20032;-72
2022/01/16 05:54:53;;;;;;;447.45;64.50;;;2.90;99.90;;;;;;5093765;28;20072;-72
2022/01/16 05:57:18;;;;;;;451.08;65.03;;;3.00;99.90;;;;;;5084646;28;20040;-72
2022/01/16 05:59:44;;;;;;;442.95;64.85;;;3.00;99.90;;;;;;5083957;28;20804;-71
2022/01/16 06:02:09;;;;;;;468.42;68.03;;;3.00;99.90;;;;;;5089297;28;20039;-72
2022/01/16 06:04:35;;;;;;;443.60;67.50;;;3.00;99.90;;;;;;5086347;28;20592;-73
2022/01/16 06:07:00;;;;;;;466.77;66.28;;;3.00;99.90;;;;;;5087924;28;20040;-72
2022/01/16 06:09:26;;;;;;;443.63;64.35;;;3.00;99.90;;;;;;5087716;28;20036;-73
2022/01/16 06:11:53;;;;;;;504.58;75.85;;;3.00;99.90;;;;;;5088749;28;20093;-72
2022/01/16 06:14:20;;;;;;;487.48;74.60;;;3.00;99.90;;;;;;5068344;28;20107;-69
2022/01/16 06:16:46;;;;;;;442.13;63.95;;;3.10;99.90;;;;;;5109028;27;20044;-71
2022/01/16 06:19:11;;;;;;;473.70;69.40;;;3.20;99.90;;;;;;5088706;28;20405;-69
2022/01/16 06:21:37;;;;;;;484.77;74.47;;;3.20;99.90;;;;;;5061758;28;20048;-70
2022/01/16 06:24:03;;;;;;;490.63;72.60;;;3.20;99.90;;;;;;5087801;28;20085;-72
2022/01/16 06:26:30;;;;;;;460.02;68.47;;;3.20;99.90;;;;;;5071031;28;20033;-71
2022/01/16 06:28:55;;;;;;;491.00;71.85;;;3.20;99.90;;;;;;5088995;28;20054;-69
2022/01/16 06:31:21;;;;;;;485.88;73.80;;;3.30;99.90;;;;;;5070324;28;20032;-69
2022/01/16 06:33:46;;;;;;;501.85;75.00;;;3.40;99.90;;;;;;5092431;28;20063;-70
2022/01/16 06:36:12;;;;;;;476.58;73.55;;;3.40;99.90;;;;;;5088590;28;20031;-68
2022/01/16 06:38:38;;;;;;;517.20;84.53;;;3.50;99.90;;;;;;5088651;28;20036;-69
2022/01/16 06:41:03;;;;;;;487.15;73.80;;;3.50;99.90;;;;;;5091665;28;20043;-71
2022/01/16 06:43:29;;;;;;;493.83;76.10;;;3.50;99.90;;;;;;5097975;28;20115;-70
2022/01/16 06:45:54;;;;;;;497.63;77.15;;;3.50;99.90;;;;;;5086731;28;20036;-69
2022/01/16 06:48:20;;;;;;;516.17;86.30;;;3.50;99.90;;;;;;5089791;28;20101;-69
2022/01/16 06:50:46;;;;;;;504.85;81.22;;;3.60;99.90;;;;;;5094211;28;20040;-70
2022/01/16 06:53:11;;;;;;;524.05;83.10;;;3.70;99.90;;;;;;5088174;28;20043;-70
2022/01/16 06:55:37;;;;;;;521.28;79.72;;;3.70;99.90;;;;;;5087162;28;20339;-71
2022/01/16 06:58:03;;;;;;;500.38;81.25;;;3.70;99.90;;;;;;5087477;28;20047;-69
2022/01/16 07:00:28;;;;;;;483.95;77.93;;;3.70;99.90;;;;;;5086987;28;20059;-69
2022/01/16 07:02:54;;;;;;;545.80;88.07;;;3.70;99.90;;;;;;5090965;28;20040;-70
2022/01/16 07:05:20;;;;;;;495.40;81.47;;;3.80;99.90;;;;;;5071202;28;20044;-71
2022/01/16 07:07:45;;;;;;;494.98;82.75;;;3.80;99.90;;;;;;5087802;28;20048;-68
2022/01/16 07:10:11;;;;;;;520.78;85.18;;;3.80;99.90;;;;;;5091151;28;20048;-68
2022/01/16 07:12:36;;;;;;;497.95;81.22;;;3.90;99.90;;;;;;5089118;28;20541;-71
2022/01/16 07:15:02;;;;;;;494.23;81.65;;;3.90;99.90;;;;;;5093394;28;20043;-68
2022/01/16 07:17:28;;;;;;;508.92;84.32;;;3.90;99.90;;;;;;5087466;28;20102;-69
2022/01/16 07:19:53;;;;;;;478.90;79.53;;;3.90;99.90;;;;;;5095804;28;20070;-71
2022/01/16 07:22:21;;;;;;;496.70;82.43;;;3.90;99.90;;;;;;5081423;28;20028;-69
2022/01/16 07:24:48;;;;;;;499.65;81.90;;;4.00;99.90;;;;;;5089756;28;20047;-70
2022/01/16 07:27:13;;;;;;;493.15;81.97;;;3.90;99.90;;;;;;5088908;28;20425;-69
2022/01/16 07:29:39;;;;;;;479.02;78.13;;;3.90;99.90;;;;;;5087252;28;20032;-69
2022/01/16 07:32:06;;;;;;;487.90;80.97;;;3.90;99.90;;;;;;5097701;28;20086;-68
2022/01/16 07:34:32;;;;;;;490.48;83.78;;;4.00;99.90;;;;;;5091971;28;20043;-69
2022/01/16 07:36:57;;;;;;;477.42;82.00;;;4.10;99.90;;;;;;5087350;28;20658;-68
2022/01/16 07:39:23;;;;;;;498.08;85.82;;;4.10;99.90;;;;;;5092408;28;20462;-69
2022/01/16 07:41:49;;;;;;;466.65;77.38;;;4.10;99.90;;;;;;5089499;28;20499;-69
2022/01/16 07:44:14;;;;;;;490.83;84.65;;;4.10;99.90;;;;;;5089645;28;20040;-69
2022/01/16 07:46:40;;;;;;;492.75;83.35;;;4.10;99.90;;;;;;5097398;28;20036;-70
2022/01/16 07:49:05;;;;;;;466.40;83.97;;;4.10;99.90;;;;;;5099349;28;20044;-71
2022/01/16 07:51:32;;;;;;;492.63;82.00;;;4.10;99.90;;;;;;5089453;28;20036;-69
2022/01/16 07:53:58;;;;;;;498.45;85.57;;;4.00;99.90;;;;;;5088250;28;20044;-70
2022/01/16 07:56:24;;;;;;;483.33;89.43;;;4.10;99.90;;;;;;5094671;28;20364;-69
2022/01/16 07:58:49;;;;;;;482.23;84.68;;;4.10;99.90;;;;;;5084521;28;20094;-70
2022/01/16 08:01:15;;;;;;;465.30;83.25;;;4.20;99.90;;;;;;5099496;28;20672;-69
2022/01/16 08:03:41;;;;;;;460.92;84.00;;;4.20;99.90;;;;;;5092927;28;20694;-70
2022/01/16 08:06:06;;;;;;;471.70;86.95;;;4.20;99.90;;;;;;5102142;28;20490;-68
2022/01/16 08:08:32;;;;;;;458.52;86.60;;;4.30;99.90;;;;;;5089128;28;20040;-69
2022/01/16 08:10:57;;;;;;;454.98;87.68;;;4.20;99.90;;;;;;5090347;28;20048;-71
2022/01/16 08:13:23;;;;;;;454.83;87.70;;;4.20;99.90;;;;;;5087274;28;20263;-69
2022/01/16 08:15:49;;;;;;;428.73;87.22;;;4.40;99.90;;;;;;5083517;28;20039;-70
2022/01/16 08:18:15;;;;;;;446.40;79.40;;;4.40;99.90;;;;;;5087393;28;20047;-70
2022/01/16 08:20:40;;;;;;;413.38;85.13;;;4.40;99.90;;;;;;5085593;28;20044;-70
2022/01/16 08:23:06;;;;;;;410.27;76.95;;;4.40;99.90;;;;;;5090924;28;20391;-71
2022/01/16 08:25:32;;;;;;;386.73;81.30;;;4.50;99.90;;;;;;5090716;28;20352;-69
2022/01/16 08:27:57;;;;;;;370.73;72.47;;;4.50;99.90;;;;;;5099783;28;20044;-72
2022/01/16 08:30:23;;;;;;;351.92;73.85;;;4.50;99.90;;;;;;5080261;28;20035;-70
2022/01/16 08:32:49;;;;;;;360.92;71.38;;;4.60;99.90;;;;;;5079572;28;20483;-71
2022/01/16 08:35:14;;;;;;;340.45;73.32;;;4.60;99.90;;;;;;5081308;28;20051;-70
2022/01/16 08:37:40;;;;;;;332.85;74.03;;;4.60;99.90;;;;;;5086239;28;20070;-67
2022/01/16 08:40:06;;;;;;;347.70;74.75;;;4.60;99.90;;;;;;5084664;28;20099;-68
2022/01/16 08:42:32;;;;;;;343.75;75.15;;;4.70;99.90;;;;;;5079122;28;20036;-69
2022/01/16 08:44:58;;;;;;;336.50;71.95;;;4.70;99.90;;;;;;5076515;28;20043;-70
2022/01/16 08:47:26;;;;;;;326.55;76.15;;;4.70;99.90;;;;;;5087879;28;20044;-69
2022/01/16 08:49:52;;;;;;;347.45;77.40;;;4.70;99.90;;;;;;5099584;28;20096;-70
2022/01/16 08:52:19;;;;;;;348.13;75.50;;;4.80;99.90;;;;;;5093294;28;20048;-69
2022/01/16 08:54:45;;;;;;;352.00;74.28;;;4.80;99.90;;;;;;5084292;28;20040;-68
2022/01/16 08:57:10;;;;;;;322.02;72.63;;;4.70;99.90;;;;;;5082901;28;20044;-68
2022/01/16 08:59:36;;;;;;;322.98;70.70;;;4.80;99.90;;;;;;5083240;28;20055;-71
2022/01/16 09:02:01;;;;;;;319.60;71.35;;;4.80;99.90;;;;;;5090861;28;20032;-68
2022/01/16 09:04:27;;;;;;;337.08;73.15;;;4.80;99.90;;;;;;5096674;28;20036;-70
2022/01/16 09:06:53;;;;;;;310.85;74.55;;;4.80;99.90;;;;;;5100684;28;20051;-68
2022/01/16 09:09:19;;;;;;;323.77;76.55;;;4.80;99.90;;;;;;5087073;28;20062;-68
2022/01/16 09:11:45;;;;;;;324.02;78.30;;;4.90;99.90;;;;;;5086154;28;20032;-71
2022/01/16 09:14:10;;;;;;;328.35;69.43;;;4.90;99.90;;;;;;5098692;28;20069;-71
2022/01/16 09:16:36;;;;;;;318.27;73.05;;;4.90;99.90;;;;;;5080721;28;20420;-70
2022/01/16 09:19:02;;;;;;;308.33;70.35;;;5.00;99.90;;;;;;5090736;28;20123;-69
2022/01/16 09:21:27;;;;;;;299.20;74.05;;;5.00;99.90;;;;;;5086730;28;20036;-69
2022/01/16 09:23:53;;;;;;;282.98;68.82;;;5.00;99.90;;;;;;5087692;28;20135;-70
2022/01/16 09:26:19;;;;;;;292.40;69.82;;;5.00;99.90;;;;;;5097237;28;20115;-68
2022/01/16 09:28:45;;;;;;;282.02;68.22;;;5.10;99.90;;;;;;5096839;28;20487;-69
2022/01/16 09:31:11;;;;;;;293.67;69.85;;;5.20;99.90;;;;;;5089361;28;20047;-69
2022/01/16 09:33:37;;;;;;;276.95;67.95;;;5.10;99.90;;;;;;5087648;28;20040;-69
2022/01/16 09:36:04;;;;;;;292.83;70.15;;;5.10;99.90;;;;;;5085253;28;20122;-71
2022/01/16 09:38:30;;;;;;;303.27;67.95;;;5.20;99.90;;;;;;5097656;28;20557;-69
2022/01/16 09:40:56;;;;;;;271.70;65.15;;;5.20;99.90;;;;;;5079077;28;20132;-71
2022/01/16 09:43:23;;;;;;;283.35;66.75;;;5.10;99.90;;;;;;5084068;28;20078;-70
2022/01/16 09:45:51;;;;;;;271.23;67.55;;;5.20;99.90;;;;;;5084540;28;20040;-70
2022/01/16 09:48:17;;;;;;;283.55;65.30;;;5.20;99.90;;;;;;5085199;28;20032;-69
2022/01/16 09:50:43;;;;;;;274.35;65.47;;;5.20;99.90;;;;;;5086700;28;20105;-70
2022/01/16 09:53:08;;;;;;;261.63;65.05;;;5.20;99.90;;;;;;5085396;28;20059;-69
2022/01/16 09:55:34;;;;;;;272.60;66.95;;;5.20;99.90;;;;;;5089002;28;20090;-71
2022/01/16 09:58:00;;;;;;;265.33;64.63;;;5.20;99.90;;;;;;5088955;28;20072;-71
2022/01/16 10:00:27;;;;;;;252.32;61.17;;;5.20;99.90;;;;;;5082177;28;20042;-71
2022/01/16 10:02:54;;;;;;;247.27;62.97;;;5.20;99.90;;;;;;5096299;28;20372;-71
2022/01/16 10:05:35;;;;;;;269.00;65.82;;;5.20;99.90;;;;;;5089006;28;20036;-70
2022/01/16 10:08:03;;;;;;;230.90;58.67;;;5.20;99.90;;;;;;5090010;28;20087;-71
2022/01/16 10:10:32;;;;;;;238.93;61.80;;;5.20;99.90;;;;;;5085710;28;20086;-70
2022/01/16 10:13:06;;;;;;;216.00;57.70;;;5.20;99.90;;;;;;5095131;28;20476;-71
2022/01/16 10:15:33;;;;;;;190.85;54.40;;;5.30;99.90;;;;;;5087408;28;20075;-71
2022/01/16 10:18:00;;;;;;;195.70;52.80;;;5.30;99.90;;;;;;5083603;28;20066;-70
2022/01/16 10:20:27;;;;;;;217.80;55.33;;;5.30;99.90;;;;;;5089828;28;20135;-72
2022/01/16 10:22:57;;;;;;;175.55;50.67;;;5.40;99.90;;;;;;5086254;28;20550;-70
2022/01/16 10:25:45;;;;;;;171.13;50.65;;;5.50;99.90;;;;;;5079701;28;20523;-69
2022/01/16 10:28:18;;;;;;;161.40;46.42;;;5.50;99.90;;;;;;5087534;28;20050;-70
2022/01/16 10:30:47;;;;;;;155.43;44.20;;;5.50;99.90;;;;;;5082196;28;20456;-71
2022/01/16 10:33:15;;;;;;;137.43;40.53;;;5.60;99.90;;;;;;5086445;28;20036;-70
2022/01/16 10:35:43;;;;;;;148.75;42.08;;;5.70;99.90;;;;;;5084269;28;20052;-71
2022/01/16 10:38:15;;;;;;;137.90;40.83;;;5.70;99.90;;;;;;5079940;28;20036;-72
2022/01/16 10:40:41;;;;;;;121.25;36.45;;;5.80;99.90;;;;;;5085928;28;20040;-72
2022/01/16 10:43:15;;;;;;;109.55;33.05;;;5.80;99.90;;;;;;5086456;28;20505;-71
2022/01/16 10:45:43;;;;;;;118.13;35.40;;;5.80;99.90;;;;;;5078049;28;20037;-70
2022/01/16 10:48:10;;;;;;;103.85;35.70;;;5.80;99.90;;;;;;5076321;28;20082;-70
2022/01/16 10:50:41;;;;;;;106.38;36.00;;;5.90;99.90;;;;;;5081023;28;20509;-72
2022/01/16 10:53:31;;;;;;;99.93;33.37;;;5.80;99.90;;;;;;5075435;28;20067;-69
2022/01/16 10:56:03;;;;;;;101.60;34.53;;;5.90;99.90;;;;;;5073987;28;20059;-70
2022/01/16 10:58:38;;;;;;;90.18;27.65;;;5.90;99.90;;;;;;5077434;28;20365;-71
2022/01/16 11:01:11;;;;;;;100.15;32.05;;;6.00;99.90;;;;;;5078403;28;20047;-72
2022/01/16 11:03:49;;;;;;;89.03;30.27;;;6.00;99.90;;;;;;5078943;28;20237;-70
2022/01/16 11:06:16;;;;;;;92.40;30.77;;;6.00;99.90;;;;;;5100967;28;20040;-70
2022/01/16 11:08:50;;;;;;;89.25;31.52;;;6.10;99.90;;;;;;5089709;28;20048;-69
2022/01/16 11:11:16;;;;;;;95.55;28.60;;;6.00;99.90;;;;;;5083032;28;20036;-70
2022/01/16 11:13:41;;;;;;;85.97;27.55;;;6.10;99.90;;;;;;5072654;28;20376;-69
2022/01/16 11:16:08;;;;;;;81.65;29.35;;;6.10;99.90;;;;;;5073964;28;20032;-70
2022/01/16 11:18:38;;;;;;;79.72;28.23;;;6.20;99.90;;;;;;5079255;28;20036;-72
2022/01/16 11:26:07;;;;;;;72.10;25.20;;;6.20;99.90;;;;;;5082632;28;20489;-71
2022/01/16 11:28:33;;;;;;;74.78;26.58;;;6.30;99.90;;;;;;5077400;28;20045;-70
2022/01/16 11:31:02;;;;;;;68.68;25.13;;;6.30;99.90;;;;;;5076852;28;20048;-71
2022/01/16 11:33:29;;;;;;;58.67;23.15;;;6.20;99.90;;;;;;5091797;28;20044;-73
2022/01/16 11:35:59;;;;;;;64.13;23.48;;;6.30;99.90;;;;;;5087197;28;20472;-69
2022/01/16 11:38:45;;;;;;;70.10;22.83;;;6.30;99.90;;;;;;5088816;28;20040;-71
2022/01/16 11:41:25;;;;;;;63.50;22.65;;;6.30;99.90;;;;;;5091490;28;20666;-71
2022/01/16 11:43:53;;;;;;;70.82;23.90;;;6.30;99.90;;;;;;5090043;28;20445;-71
2022/01/16 11:46:28;;;;;;;60.22;22.15;;;6.30;99.90;;;;;;5089860;28;20043;-71
2022/01/16 11:49:05;;;;;;;60.88;22.02;;;6.30;99.90;;;;;;5088580;28;20074;-71
2022/01/16 11:51:39;;;;;;;73.05;24.00;;;6.40;99.90;;;;;;5088682;28;20044;-71
2022/01/16 11:54:08;;;;;;;67.32;23.45;;;6.40;99.90;;;;;;5089437;28;20119;-71
2022/01/16 11:56:40;;;;;;;70.43;22.58;;;6.40;99.90;;;;;;5089345;28;20224;-72
2022/01/16 11:59:12;;;;;;;59.33;21.70;;;6.40;99.90;;;;;;5087763;28;20090;-71
2022/01/16 12:01:44;;;;;;;58.72;20.48;;;6.40;99.90;;;;;;5088713;28;20757;-71
2022/01/16 12:04:28;;;;;;;48.53;18.58;;;6.50;99.90;;;;;;5084929;28;20040;-71
2022/01/16 12:06:55;;;;;;;52.90;19.38;;;6.60;99.90;;;;;;5100437;28;20040;-70
2022/01/16 12:12:13;;;;;;;55.40;18.60;;;6.70;99.90;;;;;;5085694;28;20082;-70
2022/01/16 12:14:47;;;;;;;61.15;20.02;;;6.90;99.90;;;;;;5099090;28;20437;-71
2022/01/16 12:17:25;;;;;;;52.15;18.70;;;6.90;99.90;;;;;;5097902;28;20538;-71
2022/01/16 12:19:51;;;;;;;55.40;20.73;;;7.00;99.90;;;;;;5088288;28;20071;-74
2022/01/16 12:22:18;;;;;;;57.42;20.42;;;7.00;99.90;;;;;;5091765;28;20071;-71
2022/01/16 12:24:47;;;;;;;51.33;18.35;;;7.00;99.90;;;;;;5091868;28;20036;-73
2022/01/16 12:27:23;;;;;;;50.70;17.90;;;7.00;99.90;;;;;;5088632;28;20050;-69
2022/01/16 12:30:10;;;;;;;56.70;20.00;;;7.10;99.90;;;;;;5093009;28;20047;-71
2022/01/16 12:33:08;;;;;;;52.05;17.45;;;7.10;99.90;;;;;;5093461;28;20045;-70
2022/01/16 12:35:50;;;;;;;55.95;17.48;;;7.10;99.90;;;;;;5094192;28;20516;-71
2022/01/16 12:38:25;;;;;;;52.57;18.80;;;7.20;99.90;;;;;;5094873;28;20040;-71
2022/01/16 12:41:14;;;;;;;48.70;19.63;;;7.10;99.90;;;;;;5093968;28;20560;-72
2022/01/16 12:43:47;;;;;;;55.80;18.65;;;7.10;99.90;;;;;;5099800;28;20071;-71
2022/01/16 12:46:20;;;;;;;65.00;20.38;;;7.10;99.90;;;;;;5088461;28;20079;-71
2022/01/16 12:48:46;;;;;;;;;;;7.10;99.90;;;;;;5105722;28;20478;-70
2022/01/16 12:51:16;;;;;;;53.67;17.02;;;7.10;99.90;;;;;;5091203;28;20002;-68
2022/01/16 12:53:59;;;;;;;49.30;16.65;;;7.10;99.90;;;;;;5091211;28;20082;-74
2022/01/16 12:56:34;;;;;;;52.08;17.45;;;7.20;99.90;;;;;;5087857;28;20541;-71
2022/01/16 12:59:05;;;;;;;54.78;17.88;;;7.20;99.90;;;;;;5091146;28;20522;-71
2022/01/16 13:01:31;;;;;;;46.80;18.00;;;7.20;99.90;;;;;;5091140;28;20048;-70
2022/01/16 13:03:57;;;;;;;47.50;16.50;;;7.20;99.90;;;;;;5089606;28;20050;-71
2022/01/16 13:06:29;;;;;;;55.25;17.25;;;7.20;99.90;;;;;;5093140;28;20028;-72
2022/01/16 13:08:59;;;;;;;55.83;18.23;;;7.20;99.90;;;;;;5091376;28;20342;-69
2022/01/16 13:11:27;;;;;;;56.40;16.10;;;7.20;99.90;;;;;;5073229;28;20752;-70
2022/01/16 13:13:53;;;;;;;51.28;17.80;;;7.20;99.90;;;;;;5090399;28;20075;-70